Time;durP1;ratioP1;P1;durP2;ratioP2;P2;SDS_P1;SDS_P2;PMS_P1;PMS_P2;Temp;Humidity;BMP_temperature;BMP_pressure;BME280_temperature;BME280_humidity;BME280_pressure;Samples;Min_cycle;Max_cycle;Signal;HPM_P1;HPM_P2
2021/07/17 00:01:41;;;;;;;18.27;11.80;;;16.50;99.90;;;;;;4823421;29;20463;-73
2021/07/17 00:04:08;;;;;;;24.50;11.20;;;16.60;99.90;;;;;;4822986;29;20471;-74
2021/07/17 00:06:48;;;;;;;17.33;11.60;;;16.60;99.90;;;;;;4823331;29;20510;-73
2021/07/17 00:09:15;;;;;;;19.47;12.33;;;16.60;99.90;;;;;;4822423;29;20501;-73
2021/07/17 00:11:41;;;;;;;20.33;11.60;;;16.50;99.90;;;;;;4823500;29;20438;-74
2021/07/17 00:14:08;;;;;;;19.23;11.53;;;16.50;99.90;;;;;;4822652;29;20474;-72
2021/07/17 00:16:35;;;;;;;18.10;12.30;;;16.50;99.90;;;;;;4822696;29;20456;-72
2021/07/17 00:19:03;;;;;;;21.30;12.03;;;16.60;99.90;;;;;;4821778;29;20470;-73
2021/07/17 00:21:30;;;;;;;27.50;11.60;;;16.60;99.90;;;;;;4829260;29;20465;-73
2021/07/17 00:23:56;;;;;;;18.23;11.80;;;16.70;99.90;;;;;;4826396;29;20488;-72
2021/07/17 00:26:23;;;;;;;17.67;11.70;;;16.70;99.90;;;;;;4822139;29;20465;-73
2021/07/17 00:28:50;;;;;;;15.00;11.23;;;16.70;99.90;;;;;;4836354;29;21110;-74
2021/07/17 00:31:17;;;;;;;22.03;11.13;;;16.70;99.90;;;;;;4892528;23;20525;-73
2021/07/17 00:33:44;;;;;;;21.03;12.67;;;16.70;99.90;;;;;;4876300;29;20580;-74
2021/07/17 00:36:11;;;;;;;17.70;12.20;;;16.70;99.90;;;;;;4877997;29;20930;-72
2021/07/17 00:38:38;;;;;;;21.40;13.13;;;16.80;99.90;;;;;;4875219;29;20459;-73
2021/07/17 00:41:05;;;;;;;17.77;13.13;;;16.90;99.90;;;;;;4859339;29;20764;-72
2021/07/17 00:43:33;;;;;;;16.03;10.97;;;17.00;99.90;;;;;;4859045;29;20474;-73
2021/07/17 00:46:00;;;;;;;17.70;11.97;;;17.10;99.90;;;;;;4859558;29;20436;-72
2021/07/17 00:48:27;;;;;;;18.03;12.20;;;17.10;99.90;;;;;;4860264;29;20464;-73
2021/07/17 00:50:54;;;;;;;18.00;11.67;;;17.10;99.90;;;;;;4877821;29;20963;-73
2021/07/17 00:53:21;;;;;;;21.77;13.47;;;17.10;99.90;;;;;;4877396;29;20445;-73
2021/07/17 00:55:49;;;;;;;19.03;13.23;;;17.00;99.90;;;;;;4859473;29;20826;-73
2021/07/17 00:58:17;;;;;;;21.87;13.27;;;17.10;99.90;;;;;;4859314;29;20431;-73
2021/07/17 01:00:45;;;;;;;16.80;12.23;;;17.10;99.90;;;;;;4858121;29;20816;-73
2021/07/17 01:03:14;;;;;;;22.97;13.40;;;17.10;99.90;;;;;;4865038;29;21001;-73
2021/07/17 01:05:41;;;;;;;25.30;13.63;;;17.10;99.90;;;;;;4877810;29;20432;-73
2021/07/17 01:08:08;;;;;;;22.53;11.43;;;17.10;99.90;;;;;;4873643;29;20446;-73
2021/07/17 01:10:35;;;;;;;22.53;12.90;;;17.10;99.90;;;;;;4858984;29;20605;-73
2021/07/17 01:13:02;;;;;;;22.03;12.00;;;17.10;99.90;;;;;;4857998;29;21120;-73
2021/07/17 01:15:30;;;;;;;20.37;12.80;;;17.00;99.90;;;;;;4858808;29;20486;-73
2021/07/17 01:17:57;;;;;;;23.17;12.40;;;17.00;99.90;;;;;;4842371;29;20440;-73
2021/07/17 01:20:25;;;;;;;16.77;12.60;;;17.00;99.90;;;;;;4858609;29;20474;-73
2021/07/17 01:22:52;;;;;;;24.33;13.37;;;17.00;99.90;;;;;;4859156;29;20482;-73
2021/07/17 01:25:25;;;;;;;25.53;12.80;;;17.00;99.90;;;;;;4870814;29;21008;-73
2021/07/17 01:27:54;;;;;;;26.67;14.63;;;17.00;99.90;;;;;;4877689;29;20423;-73
2021/07/17 01:30:27;;;;;;;29.43;14.50;;;17.10;99.90;;;;;;4881950;29;20826;-72
2021/07/17 01:32:54;;;;;;;26.77;14.33;;;17.10;99.90;;;;;;4871936;29;20913;-73
2021/07/17 01:35:21;;;;;;;23.43;12.77;;;17.00;99.90;;;;;;4862359;29;20462;-73
2021/07/17 01:37:48;;;;;;;28.50;14.10;;;17.10;99.90;;;;;;4862255;29;20465;-73
2021/07/17 01:40:19;;;;;;;20.90;13.23;;;17.10;99.90;;;;;;4874793;29;21151;-73
2021/07/17 01:42:48;;;;;;;26.07;13.37;;;17.10;99.90;;;;;;4879758;29;20539;-73
2021/07/17 01:45:32;;;;;;;17.50;12.90;;;17.10;99.90;;;;;;4880658;29;20494;-73
2021/07/17 01:47:58;;;;;;;19.40;12.30;;;17.10;99.90;;;;;;4874503;29;20444;-73
2021/07/17 01:50:28;;;;;;;26.67;12.97;;;17.20;99.90;;;;;;4860682;29;20524;-73
2021/07/17 01:52:55;;;;;;;14.50;12.80;;;17.20;99.90;;;;;;4862168;29;20467;-73
2021/07/17 01:55:22;;;;;;;18.53;13.47;;;17.10;99.90;;;;;;4861558;29;20482;-73
2021/07/17 01:57:50;;;;;;;24.80;15.33;;;17.10;99.90;;;;;;4862003;29;20436;-73
2021/07/17 02:00:19;;;;;;;27.00;13.83;;;17.00;99.90;;;;;;4861752;29;20464;-73
2021/07/17 02:02:47;;;;;;;22.73;14.20;;;17.00;99.90;;;;;;4861743;29;20581;-73
2021/07/17 02:05:15;;;;;;;23.83;13.73;;;17.00;99.90;;;;;;4861681;29;20480;-73
2021/07/17 02:07:44;;;;;;;29.43;16.13;;;17.00;99.90;;;;;;4861619;29;20429;-73
2021/07/17 02:10:20;;;;;;;25.10;14.13;;;17.10;99.90;;;;;;4880400;29;20830;-73
2021/07/17 02:13:02;;;;;;;33.23;14.33;;;17.00;99.90;;;;;;4880187;29;20483;-73
2021/07/17 02:15:31;;;;;;;28.20;14.63;;;17.10;99.90;;;;;;4880084;29;20993;-73
2021/07/17 02:17:59;;;;;;;26.80;13.77;;;17.00;99.90;;;;;;4878499;29;20458;-73
2021/07/17 02:20:26;;;;;;;26.57;15.07;;;16.90;99.90;;;;;;4861648;29;20472;-73
2021/07/17 02:22:53;;;;;;;35.37;17.50;;;16.90;99.90;;;;;;4861728;29;20475;-73
2021/07/17 02:25:20;;;;;;;20.93;16.50;;;17.00;99.90;;;;;;4869416;29;20479;-73
2021/07/17 02:27:47;;;;;;;19.67;16.17;;;17.00;99.90;;;;;;4878899;29;20431;-73
2021/07/17 02:30:14;;;;;;;26.33;15.37;;;17.00;99.90;;;;;;4879647;29;20562;-73
2021/07/17 02:32:41;;;;;;;24.50;15.83;;;17.00;99.90;;;;;;4877070;29;20432;-72
2021/07/17 02:35:08;;;;;;;37.87;16.60;;;16.90;99.90;;;;;;4861202;29;20476;-73
2021/07/17 02:37:35;;;;;;;27.37;15.83;;;16.90;99.90;;;;;;4861260;29;20448;-79
2021/07/17 02:40:07;;;;;;;22.20;16.00;;;16.90;99.90;;;;;;4859617;29;21041;-79
2021/07/17 02:42:35;;;;;;;19.00;15.97;;;16.90;99.90;;;;;;4861499;29;20467;-80
2021/07/17 02:45:05;;;;;;;28.00;15.30;;;16.90;99.90;;;;;;4859731;29;20471;-78
2021/07/17 02:47:33;;;;;;;25.53;17.77;;;17.00;99.90;;;;;;4860870;29;20479;-79
2021/07/17 02:50:00;;;;;;;19.73;15.90;;;16.90;99.90;;;;;;4860912;29;21058;-79
2021/07/17 02:52:27;;;;;;;23.47;16.33;;;16.90;99.90;;;;;;4861399;29;20436;-79
2021/07/17 02:54:53;;;;;;;28.20;17.90;;;16.80;99.90;;;;;;4860986;29;20488;-79
2021/07/17 02:57:20;;;;;;;28.03;14.90;;;16.80;99.90;;;;;;4861007;29;20440;-78
2021/07/17 02:59:47;;;;;;;22.63;16.33;;;16.80;99.90;;;;;;4860829;29;20468;-80
2021/07/17 03:02:14;;;;;;;26.30;16.10;;;16.70;99.90;;;;;;4859990;29;20472;-80
2021/07/17 03:04:43;;;;;;;28.27;16.83;;;16.70;99.90;;;;;;4877966;29;20835;-79
2021/07/17 03:07:10;;;;;;;30.33;17.00;;;16.70;99.90;;;;;;4879376;29;20518;-80
2021/07/17 03:09:37;;;;;;;21.40;16.93;;;16.80;99.90;;;;;;4871319;29;20582;-80
2021/07/17 03:12:04;;;;;;;25.77;15.87;;;16.80;99.90;;;;;;4861269;29;20432;-79
2021/07/17 03:14:31;;;;;;;27.07;16.93;;;16.80;99.90;;;;;;4874920;29;20909;-80
2021/07/17 03:16:59;;;;;;;26.40;16.50;;;16.80;99.90;;;;;;4859963;29;20931;-80
2021/07/17 03:19:27;;;;;;;31.33;17.77;;;16.80;99.90;;;;;;4878438;29;20471;-79
2021/07/17 03:21:54;;;;;;;23.83;17.37;;;16.80;99.90;;;;;;4879531;29;20420;-80
2021/07/17 03:24:21;;;;;;;23.33;17.23;;;16.80;99.90;;;;;;4872448;29;20480;-79
2021/07/17 03:26:48;;;;;;;30.00;17.30;;;16.80;99.90;;;;;;4876802;29;20432;-80
2021/07/17 03:29:15;;;;;;;30.83;16.57;;;16.80;99.90;;;;;;4879248;29;20467;-80
2021/07/17 03:31:43;;;;;;;25.00;15.87;;;16.80;99.90;;;;;;4879328;29;20439;-79
2021/07/17 03:34:10;;;;;;;31.37;17.23;;;16.80;99.90;;;;;;4874078;29;20468;-80
2021/07/17 03:36:37;;;;;;;22.67;16.20;;;16.80;99.90;;;;;;4869956;29;20420;-79
2021/07/17 03:39:04;;;;;;;22.47;15.40;;;16.90;99.90;;;;;;4874586;29;20482;-79
2021/07/17 03:41:32;;;;;;;29.00;15.33;;;16.90;99.90;;;;;;4860662;29;20436;-80
2021/07/17 03:44:00;;;;;;;23.53;15.50;;;16.80;99.90;;;;;;4858827;29;20563;-79
2021/07/17 03:46:27;;;;;;;27.23;16.40;;;16.80;99.90;;;;;;4875126;29;20713;-80
2021/07/17 03:48:53;;;;;;;30.40;16.47;;;16.80;99.90;;;;;;4859903;29;20566;-80
2021/07/17 03:51:20;;;;;;;22.67;14.20;;;16.70;99.90;;;;;;4860655;29;20434;-79
2021/07/17 03:53:47;;;;;;;26.13;15.50;;;16.80;99.90;;;;;;4858542;29;20472;-79
2021/07/17 03:56:14;;;;;;;22.87;14.27;;;16.80;99.90;;;;;;4860332;29;20428;-79
2021/07/17 03:58:41;;;;;;;27.27;15.93;;;16.80;99.90;;;;;;4858539;29;20471;-80
2021/07/17 04:01:08;;;;;;;23.07;15.70;;;16.90;99.90;;;;;;4860429;29;20942;-79
2021/07/17 04:03:35;;;;;;;25.13;15.53;;;16.80;99.90;;;;;;4859416;29;20543;-79
2021/07/17 04:06:02;;;;;;;27.90;16.23;;;16.80;99.90;;;;;;4860340;29;20432;-80
2021/07/17 04:08:29;;;;;;;27.17;16.13;;;16.80;99.90;;;;;;4859339;29;20847;-79
2021/07/17 04:10:56;;;;;;;23.73;15.60;;;16.80;99.90;;;;;;4860364;29;20455;-80
2021/07/17 04:13:23;;;;;;;25.07;15.60;;;16.80;99.90;;;;;;4873688;29;20816;-78
2021/07/17 04:15:51;;;;;;;25.07;15.17;;;16.90;99.90;;;;;;4860034;29;20429;-79
2021/07/17 04:18:18;;;;;;;24.20;14.53;;;16.80;99.90;;;;;;4859302;29;20487;-79
2021/07/17 04:20:45;;;;;;;26.20;15.00;;;16.80;99.90;;;;;;4859373;29;20472;-79
2021/07/17 04:23:13;;;;;;;20.73;15.60;;;16.90;99.90;;;;;;4857551;29;20480;-81
2021/07/17 04:25:40;;;;;;;22.23;14.90;;;16.80;99.90;;;;;;4865599;29;20465;-80
2021/07/17 04:28:07;;;;;;;25.47;16.00;;;16.80;99.90;;;;;;4878172;29;20430;-80
2021/07/17 04:30:34;;;;;;;21.97;14.97;;;16.90;99.90;;;;;;4877802;29;20466;-80
2021/07/17 04:33:01;;;;;;;22.93;15.10;;;16.80;99.90;;;;;;4863324;29;20524;-79
2021/07/17 04:35:28;;;;;;;24.57;15.10;;;16.80;99.90;;;;;;4859290;29;20499;-80
2021/07/17 04:37:54;;;;;;;22.07;15.57;;;16.80;99.90;;;;;;4858361;29;20440;-80
2021/07/17 04:40:21;;;;;;;25.10;16.10;;;16.80;99.90;;;;;;4859063;29;20562;-79
2021/07/17 04:42:48;;;;;;;30.67;14.80;;;16.80;99.90;;;;;;4859699;29;20463;-79
2021/07/17 04:45:15;;;;;;;22.83;15.40;;;16.90;99.90;;;;;;4859266;29;20464;-79
2021/07/17 04:47:42;;;;;;;21.57;14.60;;;16.90;99.90;;;;;;4859423;29;21037;-79
2021/07/17 04:50:10;;;;;;;21.20;14.20;;;16.80;99.90;;;;;;4858027;29;20464;-79
2021/07/17 04:52:37;;;;;;;22.90;14.93;;;16.80;99.90;;;;;;4859238;29;20840;-79
2021/07/17 04:55:04;;;;;;;20.10;13.70;;;16.80;99.90;;;;;;4858478;29;20472;-80
2021/07/17 04:57:31;;;;;;;30.67;15.63;;;16.80;99.90;;;;;;4860326;29;20425;-79
2021/07/17 04:59:58;;;;;;;26.10;16.40;;;16.80;99.90;;;;;;4859304;29;21034;-80
2021/07/17 05:02:25;;;;;;;25.00;16.07;;;16.90;99.90;;;;;;4858411;29;20447;-79
2021/07/17 05:04:52;;;;;;;26.57;16.07;;;16.90;99.90;;;;;;4876333;29;20472;-79
2021/07/17 05:07:19;;;;;;;31.43;16.47;;;16.90;99.90;;;;;;4863288;29;20788;-79
2021/07/17 05:09:46;;;;;;;23.30;15.63;;;16.90;99.90;;;;;;4861912;29;20481;-79
2021/07/17 05:12:13;;;;;;;27.80;17.07;;;16.80;99.90;;;;;;4862320;29;21003;-79
2021/07/17 05:14:40;;;;;;;27.53;15.40;;;16.90;99.90;;;;;;4876965;29;20844;-80
2021/07/17 05:17:07;;;;;;;26.40;17.10;;;16.90;99.90;;;;;;4877367;29;20425;-79
2021/07/17 05:19:34;;;;;;;27.43;15.20;;;16.90;99.90;;;;;;4890577;29;20491;-80
2021/07/17 05:22:01;;;;;;;29.00;17.63;;;16.90;99.90;;;;;;4863169;29;20423;-80
2021/07/17 05:24:28;;;;;;;25.37;16.27;;;16.90;99.90;;;;;;4861460;29;20488;-80
2021/07/17 05:26:55;;;;;;;25.47;14.83;;;16.90;99.90;;;;;;4879585;29;20736;-80
2021/07/17 05:29:22;;;;;;;25.43;15.17;;;16.90;99.90;;;;;;4881902;29;20480;-79
2021/07/17 05:31:48;;;;;;;25.03;15.70;;;17.00;99.90;;;;;;4879346;29;20447;-79
2021/07/17 05:34:15;;;;;;;33.23;17.47;;;17.00;99.90;;;;;;4863185;29;20472;-80
2021/07/17 05:36:42;;;;;;;25.23;17.30;;;16.90;99.90;;;;;;4861288;29;20428;-80
2021/07/17 05:39:09;;;;;;;25.53;17.07;;;17.00;99.90;;;;;;4860877;29;20472;-80
2021/07/17 05:41:36;;;;;;;24.23;16.93;;;16.90;99.90;;;;;;4861538;29;20436;-80
2021/07/17 05:44:03;;;;;;;28.23;17.17;;;16.90;99.90;;;;;;4862118;29;20486;-80
2021/07/17 05:46:30;;;;;;;25.63;18.30;;;16.90;99.90;;;;;;4861324;29;20958;-80
2021/07/17 05:48:57;;;;;;;30.70;19.20;;;17.00;99.90;;;;;;4861653;29;20488;-80
2021/07/17 05:51:24;;;;;;;22.47;17.87;;;17.10;99.90;;;;;;4862510;29;20429;-80
2021/07/17 05:53:51;;;;;;;39.73;19.47;;;17.10;99.90;;;;;;4861571;29;20476;-80
2021/07/17 05:56:17;;;;;;;33.70;18.10;;;17.10;99.90;;;;;;4862406;29;20598;-80
2021/07/17 05:58:44;;;;;;;23.67;17.10;;;17.10;99.90;;;;;;4860352;29;20996;-80
2021/07/17 06:01:11;;;;;;;28.23;18.00;;;17.10;99.90;;;;;;4861255;29;20443;-79
2021/07/17 06:03:41;;;;;;;27.80;17.60;;;17.20;99.90;;;;;;4871525;29;20463;-80
2021/07/17 06:06:09;;;;;;;31.07;18.80;;;17.20;99.90;;;;;;4862247;29;20420;-80
2021/07/17 06:08:36;;;;;;;25.80;16.60;;;17.30;99.90;;;;;;4861252;29;21012;-80
2021/07/17 06:11:03;;;;;;;22.53;17.63;;;17.30;99.90;;;;;;4880539;29;20431;-79
2021/07/17 06:13:29;;;;;;;32.90;19.73;;;17.40;99.90;;;;;;4880103;29;20502;-80
2021/07/17 06:16:00;;;;;;;29.40;17.10;;;17.40;99.90;;;;;;4878143;29;20526;-79
2021/07/17 06:18:27;;;;;;;24.40;16.40;;;17.50;99.90;;;;;;4878540;29;20510;-80
2021/07/17 06:20:53;;;;;;;31.13;17.00;;;17.60;99.90;;;;;;4880311;29;20439;-80
2021/07/17 06:23:20;;;;;;;30.87;18.60;;;17.70;99.90;;;;;;4879973;29;20474;-80
2021/07/17 06:25:47;;;;;;;29.93;17.33;;;17.80;99.90;;;;;;4865159;29;21086;-80
2021/07/17 06:28:14;;;;;;;31.30;19.00;;;17.90;99.90;;;;;;4879791;29;20532;-80
2021/07/17 06:30:41;;;;;;;26.57;17.37;;;17.90;99.90;;;;;;4879517;29;20805;-81
2021/07/17 06:33:08;;;;;;;24.10;16.50;;;17.80;99.90;;;;;;4878610;29;20452;-79
2021/07/17 06:35:35;;;;;;;31.20;17.83;;;17.80;99.90;;;;;;4861824;29;20453;-80
2021/07/17 06:38:03;;;;;;;23.27;16.23;;;17.90;99.90;;;;;;4864638;29;20511;-80
2021/07/17 06:40:29;;;;;;;27.73;14.90;;;17.90;99.90;;;;;;4875399;29;20485;-81
2021/07/17 06:42:56;;;;;;;22.83;15.70;;;17.90;99.90;;;;;;4880092;29;21085;-80
2021/07/17 06:45:23;;;;;;;22.53;14.47;;;17.80;99.90;;;;;;4879413;29;20472;-79
2021/07/17 06:47:50;;;;;;;24.00;14.13;;;17.90;99.90;;;;;;4880149;29;20531;-80
2021/07/17 06:50:20;;;;;;;23.30;14.90;;;17.90;99.90;;;;;;4862828;29;20560;-80
2021/07/17 06:52:47;;;;;;;24.47;14.20;;;17.90;99.90;;;;;;4863583;29;20537;-73
2021/07/17 06:55:14;;;;;;;17.97;12.23;;;17.90;99.90;;;;;;4866500;29;20992;-73
2021/07/17 06:57:42;;;;;;;22.13;13.13;;;17.90;99.90;;;;;;4860994;29;20434;-73
2021/07/17 07:00:11;;;;;;;21.97;14.43;;;17.90;99.90;;;;;;4859799;29;20456;-73
2021/07/17 07:02:38;;;;;;;19.80;12.07;;;18.00;99.90;;;;;;4859733;29;20425;-73
2021/07/17 07:05:07;;;;;;;17.00;13.97;;;18.00;99.90;;;;;;4860544;29;20481;-73
2021/07/17 07:07:34;;;;;;;21.97;15.90;;;18.00;99.90;;;;;;4859786;29;20495;-73
2021/07/17 07:10:05;;;;;;;19.43;14.50;;;18.00;99.90;;;;;;4865246;29;20484;-72
2021/07/17 07:12:32;;;;;;;21.67;13.77;;;18.00;99.90;;;;;;4878462;29;20476;-73
2021/07/17 07:14:59;;;;;;;28.00;15.30;;;18.00;99.90;;;;;;4878981;29;20480;-73
2021/07/17 07:17:26;;;;;;;26.10;13.27;;;18.00;99.90;;;;;;4879142;29;20535;-73
2021/07/17 07:19:53;;;;;;;22.53;12.80;;;18.00;99.90;;;;;;4863459;29;20472;-73
2021/07/17 07:22:20;;;;;;;17.87;13.10;;;17.90;99.90;;;;;;4860822;29;20490;-73
2021/07/17 07:24:46;;;;;;;15.87;12.20;;;18.00;99.90;;;;;;4859812;29;20569;-72
2021/07/17 07:27:13;;;;;;;17.53;12.03;;;18.00;99.90;;;;;;4860089;29;20437;-73
2021/07/17 07:29:40;;;;;;;20.50;12.47;;;18.00;99.90;;;;;;4860437;29;20816;-73
2021/07/17 07:32:07;;;;;;;19.83;10.43;;;18.00;99.90;;;;;;4865234;29;20815;-73
2021/07/17 07:34:34;;;;;;;16.50;11.23;;;18.00;99.90;;;;;;4860260;29;20488;-73
2021/07/17 07:37:01;;;;;;;19.93;11.63;;;18.00;99.90;;;;;;4860486;29;20437;-73
2021/07/17 07:39:28;;;;;;;19.23;12.03;;;18.00;99.90;;;;;;4860110;29;20474;-72
2021/07/17 07:41:55;;;;;;;21.80;12.50;;;18.00;99.90;;;;;;4874657;29;20435;-73
2021/07/17 07:44:22;;;;;;;23.67;13.33;;;18.00;99.90;;;;;;4859831;29;20478;-72
2021/07/17 07:46:49;;;;;;;25.60;13.47;;;18.10;99.90;;;;;;4874668;29;20962;-72
2021/07/17 07:49:17;;;;;;;20.90;12.97;;;18.10;99.90;;;;;;4877467;29;20487;-73
2021/07/17 07:51:43;;;;;;;19.07;12.87;;;18.20;99.90;;;;;;4877220;29;20446;-72
2021/07/17 07:54:10;;;;;;;17.37;12.17;;;18.30;99.90;;;;;;4873323;29;20995;-73
2021/07/17 07:56:37;;;;;;;26.50;12.90;;;18.20;99.90;;;;;;4866637;29;20900;-73
2021/07/17 07:59:04;;;;;;;18.90;11.40;;;18.20;99.90;;;;;;4873857;29;20465;-73
2021/07/17 08:01:33;;;;;;;19.00;10.70;;;18.20;99.90;;;;;;4873159;29;20428;-73
2021/07/17 08:04:00;;;;;;;16.03;10.80;;;18.10;99.90;;;;;;4877263;29;20517;-73
2021/07/17 08:06:27;;;;;;;18.43;11.07;;;18.10;99.90;;;;;;4868486;29;20540;-73
2021/07/17 08:08:54;;;;;;;17.93;11.40;;;18.10;99.90;;;;;;4874491;29;20494;-73
2021/07/17 08:11:21;;;;;;;23.83;11.67;;;18.10;99.90;;;;;;4877013;29;20436;-73
2021/07/17 08:13:47;;;;;;;23.37;12.40;;;18.10;99.90;;;;;;4875418;29;20543;-72
2021/07/17 08:16:14;;;;;;;14.63;10.93;;;18.10;99.90;;;;;;4878497;29;20431;-73
2021/07/17 08:18:41;;;;;;;16.43;10.50;;;18.10;99.90;;;;;;4858697;29;20834;-73
2021/07/17 08:21:08;;;;;;;18.50;11.60;;;18.10;99.90;;;;;;4876616;29;20817;-73
2021/07/17 08:23:35;;;;;;;16.70;12.40;;;18.10;99.90;;;;;;4875848;29;20527;-71
2021/07/17 08:26:02;;;;;;;20.40;13.63;;;18.20;99.90;;;;;;4874686;29;20440;-72
2021/07/17 08:28:29;;;;;;;22.73;13.50;;;18.20;99.90;;;;;;4872884;29;20485;-74
2021/07/17 08:30:56;;;;;;;24.27;12.60;;;18.30;99.90;;;;;;4876290;29;20539;-72
2021/07/17 08:33:23;;;;;;;22.20;14.80;;;18.30;99.90;;;;;;4875355;29;20499;-73
2021/07/17 08:35:50;;;;;;;17.80;13.20;;;18.40;99.90;;;;;;4876719;29;20443;-73
2021/07/17 08:38:17;;;;;;;17.00;12.70;;;18.30;99.90;;;;;;4876863;29;20527;-74
2021/07/17 08:40:53;;;;;;;15.80;12.20;;;18.40;99.90;;;;;;4875201;29;20453;-73
2021/07/17 08:43:20;;;;;;;16.60;11.40;;;18.40;99.90;;;;;;4875329;29;20537;-73
2021/07/17 08:45:48;;;;;;;15.07;11.93;;;18.50;99.90;;;;;;4878086;29;20529;-73
2021/07/17 08:48:24;;;;;;;21.00;12.60;;;18.50;99.90;;;;;;4877359;29;20438;-74
2021/07/17 08:50:54;;;;;;;13.63;11.20;;;18.40;99.90;;;;;;4876580;29;20430;-73
2021/07/17 08:53:23;;;;;;;15.37;10.87;;;18.40;99.90;;;;;;4875787;29;20466;-73
2021/07/17 08:55:49;;;;;;;13.70;10.87;;;18.50;99.90;;;;;;4869149;29;20453;-73
2021/07/17 08:58:26;;;;;;;19.60;11.50;;;18.60;99.90;;;;;;4866692;29;20494;-73
2021/07/17 09:00:53;;;;;;;16.23;11.07;;;18.60;99.90;;;;;;4876524;29;20453;-74
2021/07/17 09:03:20;;;;;;;17.80;12.17;;;18.70;99.90;;;;;;4874342;29;21066;-74
2021/07/17 09:05:51;;;;;;;20.37;13.07;;;18.70;99.90;;;;;;4875851;29;20495;-72
2021/07/17 09:08:22;;;;;;;21.97;16.27;;;18.70;99.90;;;;;;4869190;29;20514;-73
2021/07/17 09:10:52;;;;;;;19.23;14.97;;;18.70;99.90;;;;;;4872776;29;20454;-74
2021/07/17 09:13:37;;;;;;;19.97;13.20;;;18.70;99.90;;;;;;4876837;29;20451;-74
2021/07/17 09:16:18;;;;;;;15.83;11.83;;;18.70;99.90;;;;;;4876713;29;20532;-74
2021/07/17 09:18:57;;;;;;;18.07;12.90;;;18.80;99.90;;;;;;4864368;29;20841;-74
2021/07/17 09:21:43;;;;;;;22.30;12.93;;;18.80;99.90;;;;;;4875665;29;20440;-74
2021/07/17 09:24:24;;;;;;;19.03;13.03;;;18.80;99.90;;;;;;4871122;29;20481;-74
2021/07/17 09:26:56;;;;;;;18.53;11.77;;;18.90;99.90;;;;;;4867828;29;20439;-74
2021/07/17 09:29:38;;;;;;;20.17;11.63;;;18.90;99.90;;;;;;4879696;29;20489;-74
2021/07/17 09:32:15;;;;;;;17.13;11.47;;;19.00;99.90;;;;;;4877214;29;20488;-72
2021/07/17 09:34:42;;;;;;;19.23;12.27;;;19.10;99.90;;;;;;4858860;29;21028;-74
2021/07/17 09:37:10;;;;;;;16.97;12.10;;;19.10;99.90;;;;;;4875878;29;20450;-73
2021/07/17 09:39:45;;;;;;;24.30;12.87;;;19.10;99.90;;;;;;4866782;29;20527;-73
2021/07/17 09:42:16;;;;;;;16.80;12.23;;;19.20;99.90;;;;;;4873039;29;20576;-74
2021/07/17 09:44:48;;;;;;;19.90;12.47;;;19.20;99.90;;;;;;4870669;29;20485;-74
2021/07/17 09:47:24;;;;;;;19.27;13.13;;;19.20;99.90;;;;;;4871126;29;20457;-74
2021/07/17 09:50:20;;;;;;;17.17;11.03;;;19.50;99.90;;;;;;4855988;29;20513;-74
2021/07/17 09:52:48;;;;;;;16.73;11.67;;;19.60;99.90;;;;;;4879352;29;20443;-74
2021/07/17 09:55:19;;;;;;;21.47;12.10;;;19.60;99.90;;;;;;4865958;29;20480;-73
2021/07/17 09:57:50;;;;;;;15.07;11.20;;;19.60;99.90;;;;;;4874843;29;20447;-74
2021/07/17 10:00:26;;;;;;;16.90;12.67;;;19.60;99.90;;;;;;4863425;29;20471;-74
2021/07/17 10:03:02;;;;;;;18.23;12.47;;;19.50;99.90;;;;;;4874841;29;20542;-74
2021/07/17 10:05:41;;;;;;;18.57;12.27;;;19.60;99.90;;;;;;4875583;29;20498;-73
2021/07/17 10:08:13;;;;;;;17.03;12.30;;;19.80;99.90;;;;;;4876169;29;20450;-75
2021/07/17 10:11:00;;;;;;;15.40;12.53;;;20.10;99.90;;;;;;4863343;29;20450;-74
2021/07/17 10:13:37;;;;;;;15.67;12.47;;;20.20;99.90;;;;;;4860317;29;20815;-74
2021/07/17 10:16:18;;;;;;;20.00;12.17;;;20.50;99.90;;;;;;4874978;29;20447;-74
2021/07/17 10:18:49;;;;;;;13.90;12.00;;;20.50;99.90;;;;;;4877211;29;20466;-74
2021/07/17 10:21:17;;;;;;;14.07;11.00;;;20.60;99.90;;;;;;4867254;29;20448;-74
2021/07/17 10:23:45;;;;;;;20.00;12.17;;;20.70;99.90;;;;;;4860137;29;20480;-74
2021/07/17 10:26:15;;;;;;;18.60;11.60;;;20.60;99.90;;;;;;4877350;29;20550;-74
2021/07/17 10:28:45;;;;;;;18.77;12.03;;;20.80;99.90;;;;;;4878494;29;20530;-74
2021/07/17 10:31:18;;;;;;;13.47;11.50;;;21.00;99.90;;;;;;4878988;29;20539;-74
2021/07/17 10:33:51;;;;;;;18.07;10.50;;;21.20;99.90;;;;;;4862715;29;20488;-74
2021/07/17 10:36:33;;;;;;;15.97;11.97;;;21.40;99.90;;;;;;4863208;29;20514;-74
2021/07/17 10:39:05;;;;;;;17.43;11.47;;;21.30;99.90;;;;;;4874473;29;20575;-74
2021/07/17 10:41:34;;;;;;;16.37;11.20;;;21.30;99.90;;;;;;4876480;29;20448;-74
2021/07/17 10:44:04;;;;;;;17.07;11.60;;;21.30;99.90;;;;;;4860199;29;20583;-74
2021/07/17 10:46:37;;;;;;;14.33;11.10;;;21.30;99.90;;;;;;4877547;29;20476;-74
2021/07/17 10:49:13;;;;;;;14.50;10.17;;;21.40;99.90;;;;;;4862765;29;20495;-74
2021/07/17 10:51:58;;;;;;;14.80;10.43;;;21.70;99.90;;;;;;4887052;29;20515;-74
2021/07/17 10:54:30;;;;;;;16.73;11.57;;;22.00;99.90;;;;;;4887524;29;20488;-75
2021/07/17 10:56:58;;;;;;;15.63;9.90;;;22.10;99.90;;;;;;4878016;29;20439;-73
2021/07/17 10:59:29;;;;;;;17.27;9.47;;;22.30;99.90;;;;;;4862998;29;20845;-73
2021/07/17 11:02:01;;;;;;;14.00;8.90;;;22.50;99.90;;;;;;4863205;29;20455;-73
2021/07/17 11:04:50;;;;;;;18.47;9.57;;;22.80;99.90;;;;;;4854370;29;20477;-73
2021/07/17 11:07:20;;;;;;;14.73;9.90;;;22.70;99.90;;;;;;4859539;29;20433;-73
2021/07/17 11:09:56;;;;;;;13.57;9.77;;;22.50;99.90;;;;;;4872486;29;20723;-73
2021/07/17 11:12:32;;;;;;;16.00;9.03;;;22.50;99.90;;;;;;4891277;29;20563;-73
2021/07/17 11:15:05;;;;;;;16.13;9.57;;;22.70;99.90;;;;;;4877446;29;21024;-74
2021/07/17 11:17:51;;;;;;;15.23;8.07;;;22.80;99.90;;;;;;4875795;29;20937;-74
2021/07/17 11:20:34;;;;;;;20.07;8.97;;;23.00;99.90;;;;;;4876488;29;20495;-73
2021/07/17 11:23:16;;;;;;;15.93;7.90;;;23.10;99.90;;;;;;4867232;29;20470;-74
2021/07/17 11:26:07;;;;;;;12.13;8.33;;;23.40;99.90;;;;;;4875258;29;21043;-73
2021/07/17 11:28:51;;;;;;;12.20;8.13;;;23.60;99.90;;;;;;4852724;29;20488;-73
2021/07/17 11:31:31;;;;;;;12.60;8.40;;;23.60;99.90;;;;;;4873854;29;20972;-81
2021/07/17 11:34:20;;;;;;;10.93;8.40;;;23.70;99.90;;;;;;4877601;29;20475;-80
2021/07/17 11:36:53;;;;;;;11.17;8.50;;;23.80;99.90;;;;;;4877453;29;20669;-81
2021/07/17 11:39:40;;;;;;;10.27;7.57;;;23.80;99.90;;;;;;4853241;29;20629;-81
2021/07/17 11:42:11;;;;;;;16.97;7.73;;;23.80;99.90;;;;;;4879309;29;20433;-81
2021/07/17 11:44:41;;;;;;;10.50;7.70;;;24.00;99.90;;;;;;4877226;29;20479;-81
2021/07/17 11:47:21;;;;;;;11.77;8.17;;;24.00;99.90;;;;;;4862729;29;20454;-81
2021/07/17 11:50:05;;;;;;;13.67;8.03;;;24.10;99.90;;;;;;4877564;29;21040;-81
2021/07/17 11:52:36;;;;;;;12.70;7.23;;;24.30;99.90;;;;;;4878249;29;20430;-81
2021/07/17 11:55:14;;;;;;;14.47;7.13;;;24.40;99.90;;;;;;4873448;29;20482;-80
2021/07/17 11:57:46;;;;;;;8.27;6.80;;;24.40;99.90;;;;;;4859577;29;20450;-81
2021/07/17 12:00:22;;;;;;;11.27;6.90;;;24.30;99.90;;;;;;4875528;29;20482;-79
2021/07/17 12:02:58;;;;;;;9.33;6.13;;;24.30;99.90;;;;;;4877429;29;20595;-81
2021/07/17 12:05:41;;;;;;;8.67;5.73;;;24.40;99.90;;;;;;4878133;29;20471;-80
2021/07/17 12:08:08;;;;;;;10.73;5.90;;;24.50;99.90;;;;;;4862225;29;20451;-80
2021/07/17 12:10:40;;;;;;;10.17;5.70;;;24.60;99.90;;;;;;4873414;29;20980;-80
2021/07/17 12:13:13;;;;;;;9.20;5.23;;;24.60;99.90;;;;;;4846290;29;20471;-81
2021/07/17 12:15:42;;;;;;;12.03;6.00;;;24.50;99.90;;;;;;4877005;29;20474;-81
2021/07/17 12:18:18;;;;;;;8.93;5.90;;;24.50;99.90;;;;;;4876881;29;20451;-80
2021/07/17 12:20:50;;;;;;;8.03;5.20;;;24.70;99.90;;;;;;4877207;29;20479;-81
2021/07/17 12:23:27;;;;;;;9.93;5.20;;;24.80;99.90;;;;;;4869023;29;20596;-81
2021/07/17 12:26:04;;;;;;;6.40;4.90;;;24.90;99.90;;;;;;4873381;29;20475;-81
2021/07/17 12:28:36;;;;;;;8.37;4.63;;;25.00;99.90;;;;;;4858380;29;20515;-79
2021/07/17 12:31:11;;;;;;;10.20;5.23;;;25.30;99.90;;;;;;4888141;29;20498;-80
2021/07/17 12:33:52;;;;;;;8.50;4.97;;;25.30;99.90;;;;;;4860206;29;20463;-79
2021/07/17 12:36:29;;;;;;;9.37;5.43;;;25.40;99.90;;;;;;4876785;29;20446;-79
2021/07/17 12:39:03;;;;;;;8.70;3.90;;;25.50;99.90;;;;;;4873528;29;20848;-79
2021/07/17 12:41:33;;;;;;;7.33;4.40;;;25.30;99.90;;;;;;4867159;29;20451;-80